sensor_id;sensor_type;location;lat;lon;timestamp;P1;durP1;ratioP1;P2;durP2;ratioP2
10403;SDS011;5248;47.374;8.486;2024-02-26T00:00:16;1.57;;;1.47;;
10403;SDS011;5248;47.374;8.486;2024-02-26T00:02:45;2.13;;;1.60;;
10403;SDS011;5248;47.374;8.486;2024-02-26T00:05:12;2.10;;;1.47;;
10403;SDS011;5248;47.374;8.486;2024-02-26T00:07:39;1.30;;;1.20;;
10403;SDS011;5248;47.374;8.486;2024-02-26T00:10:06;1.57;;;1.47;;
10403;SDS011;5248;47.374;8.486;2024-02-26T00:12:35;2.03;;;1.80;;
10403;SDS011;5248;47.374;8.486;2024-02-26T00:15:02;2.13;;;1.30;;
10403;SDS011;5248;47.374;8.486;2024-02-26T00:17:31;3.53;;;1.80;;
10403;SDS011;5248;47.374;8.486;2024-02-26T00:19:59;1.57;;;1.47;;
10403;SDS011;5248;47.374;8.486;2024-02-26T00:22:26;1.73;;;1.37;;
10403;SDS011;5248;47.374;8.486;2024-02-26T00:24:53;2.00;;;1.83;;
10403;SDS011;5248;47.374;8.486;2024-02-26T00:27:20;3.83;;;2.00;;
10403;SDS011;5248;47.374;8.486;2024-02-26T00:29:46;1.63;;;1.40;;
10403;SDS011;5248;47.374;8.486;2024-02-26T00:32:13;1.87;;;1.77;;
10403;SDS011;5248;47.374;8.486;2024-02-26T00:34:41;2.00;;;1.90;;
10403;SDS011;5248;47.374;8.486;2024-02-26T00:37:09;2.30;;;1.70;;
10403;SDS011;5248;47.374;8.486;2024-02-26T00:39:37;1.80;;;1.70;;
10403;SDS011;5248;47.374;8.486;2024-02-26T00:42:04;1.80;;;1.70;;
10403;SDS011;5248;47.374;8.486;2024-02-26T00:44:32;1.80;;;1.70;;
10403;SDS011;5248;47.374;8.486;2024-02-26T00:46:59;4.10;;;1.63;;
10403;SDS011;5248;47.374;8.486;2024-02-26T00:49:26;1.73;;;1.63;;
10403;SDS011;5248;47.374;8.486;2024-02-26T00:51:54;1.70;;;1.57;;
10403;SDS011;5248;47.374;8.486;2024-02-26T00:54:22;2.00;;;1.90;;
10403;SDS011;5248;47.374;8.486;2024-02-26T00:56:48;1.73;;;1.63;;
10403;SDS011;5248;47.374;8.486;2024-02-26T00:59:15;2.03;;;1.80;;
10403;SDS011;5248;47.374;8.486;2024-02-26T01:01:43;1.70;;;1.60;;
10403;SDS011;5248;47.374;8.486;2024-02-26T01:04:09;1.60;;;1.50;;
10403;SDS011;5248;47.374;8.486;2024-02-26T01:06:37;1.63;;;1.53;;
10403;SDS011;5248;47.374;8.486;2024-02-26T01:09:03;3.63;;;1.50;;
10403;SDS011;5248;47.374;8.486;2024-02-26T01:11:31;2.37;;;1.47;;
10403;SDS011;5248;47.374;8.486;2024-02-26T01:13:58;1.40;;;1.30;;
10403;SDS011;5248;47.374;8.486;2024-02-26T01:16:26;1.60;;;1.50;;
10403;SDS011;5248;47.374;8.486;2024-02-26T01:18:56;1.40;;;1.30;;
10403;SDS011;5248;47.374;8.486;2024-02-26T01:21:22;1.63;;;1.53;;
10403;SDS011;5248;47.374;8.486;2024-02-26T01:23:49;1.10;;;1.00;;
10403;SDS011;5248;47.374;8.486;2024-02-26T01:26:15;1.33;;;1.23;;
10403;SDS011;5248;47.374;8.486;2024-02-26T01:28:46;1.27;;;1.23;;
10403;SDS011;5248;47.374;8.486;2024-02-26T01:31:14;1.43;;;1.23;;
10403;SDS011;5248;47.374;8.486;2024-02-26T01:33:41;1.37;;;1.23;;
10403;SDS011;5248;47.374;8.486;2024-02-26T01:36:09;2.00;;;1.50;;
10403;SDS011;5248;47.374;8.486;2024-02-26T01:38:35;1.33;;;1.13;;
10403;SDS011;5248;47.374;8.486;2024-02-26T01:41:02;2.10;;;1.53;;
10403;SDS011;5248;47.374;8.486;2024-02-26T01:43:29;1.40;;;1.27;;
10403;SDS011;5248;47.374;8.486;2024-02-26T01:46:00;1.20;;;1.10;;
10403;SDS011;5248;47.374;8.486;2024-02-26T01:48:27;1.53;;;1.43;;
10403;SDS011;5248;47.374;8.486;2024-02-26T01:50:55;1.50;;;1.40;;
10403;SDS011;5248;47.374;8.486;2024-02-26T01:53:22;1.50;;;1.40;;
10403;SDS011;5248;47.374;8.486;2024-02-26T01:55:49;1.03;;;1.00;;
10403;SDS011;5248;47.374;8.486;2024-02-26T01:58:16;1.23;;;1.17;;
10403;SDS011;5248;47.374;8.486;2024-02-26T02:00:43;1.40;;;1.30;;
10403;SDS011;5248;47.374;8.486;2024-02-26T02:03:11;2.07;;;1.30;;
10403;SDS011;5248;47.374;8.486;2024-02-26T02:05:37;1.47;;;1.37;;
10403;SDS011;5248;47.374;8.486;2024-02-26T02:08:07;1.10;;;1.00;;
10403;SDS011;5248;47.374;8.486;2024-02-26T02:10:35;1.73;;;1.30;;
10403;SDS011;5248;47.374;8.486;2024-02-26T02:13:02;1.63;;;1.40;;
10403;SDS011;5248;47.374;8.486;2024-02-26T02:15:28;1.23;;;1.13;;
10403;SDS011;5248;47.374;8.486;2024-02-26T02:17:55;1.20;;;1.10;;
10403;SDS011;5248;47.374;8.486;2024-02-26T02:20:26;1.90;;;1.20;;
10403;SDS011;5248;47.374;8.486;2024-02-26T02:22:53;1.40;;;1.17;;
10403;SDS011;5248;47.374;8.486;2024-02-26T02:25:20;1.40;;;1.30;;
10403;SDS011;5248;47.374;8.486;2024-02-26T02:27:49;1.50;;;1.40;;
10403;SDS011;5248;47.374;8.486;2024-02-26T02:30:15;1.30;;;1.20;;
10403;SDS011;5248;47.374;8.486;2024-02-26T02:32:42;1.50;;;1.40;;
10403;SDS011;5248;47.374;8.486;2024-02-26T02:35:10;1.83;;;1.30;;
10403;SDS011;5248;47.374;8.486;2024-02-26T02:37:38;1.20;;;1.10;;
10403;SDS011;5248;47.374;8.486;2024-02-26T02:40:07;1.10;;;1.10;;
10403;SDS011;5248;47.374;8.486;2024-02-26T02:42:34;0.77;;;0.77;;
10403;SDS011;5248;47.374;8.486;2024-02-26T02:45:01;1.30;;;1.20;;
10403;SDS011;5248;47.374;8.486;2024-02-26T02:47:27;1.13;;;1.07;;
10403;SDS011;5248;47.374;8.486;2024-02-26T02:49:54;1.50;;;1.07;;
10403;SDS011;5248;47.374;8.486;2024-02-26T02:52:20;1.63;;;1.10;;
10403;SDS011;5248;47.374;8.486;2024-02-26T02:54:48;1.47;;;1.10;;
10403;SDS011;5248;47.374;8.486;2024-02-26T02:57:15;1.60;;;1.50;;
10403;SDS011;5248;47.374;8.486;2024-02-26T02:59:43;2.77;;;1.03;;
10403;SDS011;5248;47.374;8.486;2024-02-26T03:02:09;1.23;;;1.13;;
10403;SDS011;5248;47.374;8.486;2024-02-26T03:04:36;1.07;;;0.97;;
10403;SDS011;5248;47.374;8.486;2024-02-26T03:07:05;1.67;;;1.10;;
10403;SDS011;5248;47.374;8.486;2024-02-26T03:09:32;1.33;;;1.07;;
10403;SDS011;5248;47.374;8.486;2024-02-26T03:12:02;1.03;;;1.03;;
10403;SDS011;5248;47.374;8.486;2024-02-26T03:14:29;1.50;;;1.33;;
10403;SDS011;5248;47.374;8.486;2024-02-26T03:16:57;1.37;;;1.27;;
10403;SDS011;5248;47.374;8.486;2024-02-26T03:19:23;1.37;;;1.27;;
10403;SDS011;5248;47.374;8.486;2024-02-26T03:21:49;1.40;;;1.30;;
10403;SDS011;5248;47.374;8.486;2024-02-26T03:24:15;1.30;;;1.20;;
10403;SDS011;5248;47.374;8.486;2024-02-26T03:26:42;1.40;;;1.17;;
10403;SDS011;5248;47.374;8.486;2024-02-26T03:29:10;1.70;;;1.60;;
10403;SDS011;5248;47.374;8.486;2024-02-26T03:31:37;1.70;;;1.40;;
10403;SDS011;5248;47.374;8.486;2024-02-26T03:34:04;1.40;;;1.30;;
10403;SDS011;5248;47.374;8.486;2024-02-26T03:36:31;1.40;;;1.30;;
10403;SDS011;5248;47.374;8.486;2024-02-26T03:38:58;1.23;;;1.10;;
10403;SDS011;5248;47.374;8.486;2024-02-26T03:41:25;2.67;;;1.30;;
10403;SDS011;5248;47.374;8.486;2024-02-26T03:43:51;1.40;;;1.30;;
10403;SDS011;5248;47.374;8.486;2024-02-26T03:46:21;1.27;;;1.17;;
10403;SDS011;5248;47.374;8.486;2024-02-26T03:48:48;1.20;;;1.10;;
10403;SDS011;5248;47.374;8.486;2024-02-26T03:51:15;0.90;;;0.90;;
10403;SDS011;5248;47.374;8.486;2024-02-26T03:53:41;1.20;;;0.97;;
10403;SDS011;5248;47.374;8.486;2024-02-26T03:56:08;2.00;;;1.13;;
10403;SDS011;5248;47.374;8.486;2024-02-26T03:58:37;1.03;;;1.03;;
10403;SDS011;5248;47.374;8.486;2024-02-26T04:01:04;1.23;;;1.23;;
10403;SDS011;5248;47.374;8.486;2024-02-26T04:03:35;2.23;;;1.30;;
10403;SDS011;5248;47.374;8.486;2024-02-26T04:06:02;1.20;;;1.10;;
10403;SDS011;5248;47.374;8.486;2024-02-26T04:08:29;1.27;;;1.17;;
10403;SDS011;5248;47.374;8.486;2024-02-26T04:10:56;1.23;;;1.13;;
10403;SDS011;5248;47.374;8.486;2024-02-26T04:13:24;2.83;;;1.37;;
10403;SDS011;5248;47.374;8.486;2024-02-26T04:15:50;1.20;;;1.20;;
10403;SDS011;5248;47.374;8.486;2024-02-26T04:18:17;1.10;;;1.10;;
10403;SDS011;5248;47.374;8.486;2024-02-26T04:20:45;1.13;;;1.03;;
10403;SDS011;5248;47.374;8.486;2024-02-26T04:23:11;1.03;;;1.00;;
10403;SDS011;5248;47.374;8.486;2024-02-26T04:25:38;0.70;;;0.70;;
10403;SDS011;5248;47.374;8.486;2024-02-26T04:28:04;0.87;;;0.73;;
10403;SDS011;5248;47.374;8.486;2024-02-26T04:30:31;1.10;;;0.90;;
10403;SDS011;5248;47.374;8.486;2024-02-26T04:32:58;1.60;;;0.80;;
10403;SDS011;5248;47.374;8.486;2024-02-26T04:35:25;0.80;;;0.80;;
10403;SDS011;5248;47.374;8.486;2024-02-26T04:37:53;1.00;;;1.00;;
10403;SDS011;5248;47.374;8.486;2024-02-26T04:40:19;1.13;;;1.13;;
10403;SDS011;5248;47.374;8.486;2024-02-26T04:42:46;1.10;;;1.00;;
10403;SDS011;5248;47.374;8.486;2024-02-26T04:45:13;1.03;;;1.03;;
10403;SDS011;5248;47.374;8.486;2024-02-26T04:47:39;1.20;;;1.10;;
10403;SDS011;5248;47.374;8.486;2024-02-26T04:50:06;1.07;;;1.07;;
10403;SDS011;5248;47.374;8.486;2024-02-26T04:52:32;0.93;;;0.93;;
10403;SDS011;5248;47.374;8.486;2024-02-26T04:55:03;0.70;;;0.70;;
10403;SDS011;5248;47.374;8.486;2024-02-26T04:57:30;0.90;;;0.90;;
10403;SDS011;5248;47.374;8.486;2024-02-26T04:59:57;1.40;;;1.30;;
10403;SDS011;5248;47.374;8.486;2024-02-26T05:02:24;1.10;;;1.10;;
10403;SDS011;5248;47.374;8.486;2024-02-26T05:04:50;1.33;;;1.13;;
10403;SDS011;5248;47.374;8.486;2024-02-26T05:07:19;0.93;;;0.93;;
10403;SDS011;5248;47.374;8.486;2024-02-26T05:09:46;0.90;;;0.90;;
10403;SDS011;5248;47.374;8.486;2024-02-26T05:12:16;2.50;;;0.87;;
10403;SDS011;5248;47.374;8.486;2024-02-26T05:14:42;4.43;;;3.37;;
10403;SDS011;5248;47.374;8.486;2024-02-26T05:17:09;1.90;;;0.93;;
10403;SDS011;5248;47.374;8.486;2024-02-26T05:19:35;1.20;;;0.90;;
10403;SDS011;5248;47.374;8.486;2024-02-26T05:22:02;1.00;;;1.00;;
10403;SDS011;5248;47.374;8.486;2024-02-26T05:24:28;2.00;;;1.33;;
10403;SDS011;5248;47.374;8.486;2024-02-26T05:26:55;1.00;;;0.93;;
10403;SDS011;5248;47.374;8.486;2024-02-26T05:29:23;2.07;;;1.17;;
10403;SDS011;5248;47.374;8.486;2024-02-26T05:31:49;1.43;;;1.10;;
10403;SDS011;5248;47.374;8.486;2024-02-26T05:34:16;0.80;;;0.80;;
10403;SDS011;5248;47.374;8.486;2024-02-26T05:36:43;2.23;;;0.90;;
10403;SDS011;5248;47.374;8.486;2024-02-26T05:39:09;1.00;;;1.00;;
10403;SDS011;5248;47.374;8.486;2024-02-26T05:41:37;1.50;;;0.73;;
10403;SDS011;5248;47.374;8.486;2024-02-26T05:44:07;1.10;;;1.00;;
10403;SDS011;5248;47.374;8.486;2024-02-26T05:46:36;1.67;;;0.90;;
10403;SDS011;5248;47.374;8.486;2024-02-26T05:49:03;1.30;;;0.97;;
10403;SDS011;5248;47.374;8.486;2024-02-26T05:51:29;1.50;;;1.40;;
10403;SDS011;5248;47.374;8.486;2024-02-26T05:53:56;1.17;;;1.07;;
10403;SDS011;5248;47.374;8.486;2024-02-26T05:56:23;0.90;;;0.90;;
10403;SDS011;5248;47.374;8.486;2024-02-26T05:58:52;2.07;;;1.10;;
10403;SDS011;5248;47.374;8.486;2024-02-26T06:01:19;1.20;;;1.10;;
10403;SDS011;5248;47.374;8.486;2024-02-26T06:03:47;1.10;;;1.00;;
10403;SDS011;5248;47.374;8.486;2024-02-26T06:06:13;1.00;;;0.80;;
10403;SDS011;5248;47.374;8.486;2024-02-26T06:08:40;2.27;;;1.20;;
10403;SDS011;5248;47.374;8.486;2024-02-26T06:11:07;0.80;;;0.80;;
10403;SDS011;5248;47.374;8.486;2024-02-26T06:13:33;1.57;;;0.80;;
10403;SDS011;5248;47.374;8.486;2024-02-26T06:16:00;0.90;;;0.90;;
10403;SDS011;5248;47.374;8.486;2024-02-26T06:18:27;1.47;;;1.17;;
10403;SDS011;5248;47.374;8.486;2024-02-26T06:20:55;0.90;;;0.90;;
10403;SDS011;5248;47.374;8.486;2024-02-26T06:23:21;2.10;;;1.33;;
10403;SDS011;5248;47.374;8.486;2024-02-26T06:25:48;1.60;;;1.50;;
10403;SDS011;5248;47.374;8.486;2024-02-26T06:28:16;1.80;;;1.60;;
10403;SDS011;5248;47.374;8.486;2024-02-26T06:30:42;1.00;;;1.00;;
10403;SDS011;5248;47.374;8.486;2024-02-26T06:33:09;1.17;;;1.10;;
10403;SDS011;5248;47.374;8.486;2024-02-26T06:35:39;1.67;;;1.20;;
10403;SDS011;5248;47.374;8.486;2024-02-26T06:38:09;1.10;;;1.00;;
10403;SDS011;5248;47.374;8.486;2024-02-26T06:40:37;1.90;;;1.43;;
10403;SDS011;5248;47.374;8.486;2024-02-26T06:43:04;1.47;;;1.37;;
10403;SDS011;5248;47.374;8.486;2024-02-26T06:45:31;1.50;;;1.30;;
10403;SDS011;5248;47.374;8.486;2024-02-26T06:47:58;1.50;;;1.40;;
10403;SDS011;5248;47.374;8.486;2024-02-26T06:50:24;1.50;;;1.30;;
10403;SDS011;5248;47.374;8.486;2024-02-26T06:52:51;1.43;;;1.33;;
10403;SDS011;5248;47.374;8.486;2024-02-26T06:55:19;1.27;;;1.17;;
10403;SDS011;5248;47.374;8.486;2024-02-26T06:57:46;1.50;;;1.40;;
10403;SDS011;5248;47.374;8.486;2024-02-26T07:00:13;1.57;;;1.50;;
10403;SDS011;5248;47.374;8.486;2024-02-26T07:02:41;2.30;;;2.13;;
10403;SDS011;5248;47.374;8.486;2024-02-26T07:05:08;2.07;;;1.97;;
10403;SDS011;5248;47.374;8.486;2024-02-26T07:07:35;1.50;;;1.50;;
10403;SDS011;5248;47.374;8.486;2024-02-26T07:10:01;2.17;;;1.53;;
10403;SDS011;5248;47.374;8.486;2024-02-26T07:12:32;1.77;;;1.47;;
10403;SDS011;5248;47.374;8.486;2024-02-26T07:14:58;1.67;;;1.50;;
10403;SDS011;5248;47.374;8.486;2024-02-26T07:17:25;3.37;;;1.30;;
10403;SDS011;5248;47.374;8.486;2024-02-26T07:19:53;2.53;;;1.30;;
10403;SDS011;5248;47.374;8.486;2024-02-26T07:22:19;2.13;;;1.60;;
10403;SDS011;5248;47.374;8.486;2024-02-26T07:24:46;1.40;;;1.30;;
10403;SDS011;5248;47.374;8.486;2024-02-26T07:27:17;1.90;;;1.73;;
10403;SDS011;5248;47.374;8.486;2024-02-26T07:29:47;3.27;;;1.53;;
10403;SDS011;5248;47.374;8.486;2024-02-26T07:32:14;1.47;;;1.37;;
10403;SDS011;5248;47.374;8.486;2024-02-26T07:34:40;3.60;;;1.47;;
10403;SDS011;5248;47.374;8.486;2024-02-26T07:37:09;4.63;;;2.13;;
10403;SDS011;5248;47.374;8.486;2024-02-26T07:39:37;2.43;;;1.50;;
10403;SDS011;5248;47.374;8.486;2024-02-26T07:42:04;2.00;;;1.90;;
10403;SDS011;5248;47.374;8.486;2024-02-26T07:44:31;2.03;;;1.80;;
10403;SDS011;5248;47.374;8.486;2024-02-26T07:46:59;2.20;;;2.10;;
10403;SDS011;5248;47.374;8.486;2024-02-26T07:49:25;1.93;;;1.70;;
10403;SDS011;5248;47.374;8.486;2024-02-26T07:51:52;1.70;;;1.60;;
10403;SDS011;5248;47.374;8.486;2024-02-26T07:54:23;1.67;;;1.57;;
10403;SDS011;5248;47.374;8.486;2024-02-26T07:56:49;2.00;;;1.80;;
10403;SDS011;5248;47.374;8.486;2024-02-26T07:59:16;3.83;;;1.83;;
10403;SDS011;5248;47.374;8.486;2024-02-26T08:01:42;1.57;;;1.47;;
10403;SDS011;5248;47.374;8.486;2024-02-26T08:04:10;1.63;;;1.53;;
10403;SDS011;5248;47.374;8.486;2024-02-26T08:06:37;2.00;;;1.90;;
10403;SDS011;5248;47.374;8.486;2024-02-26T08:09:03;1.70;;;1.60;;
10403;SDS011;5248;47.374;8.486;2024-02-26T08:11:30;1.77;;;1.67;;
10403;SDS011;5248;47.374;8.486;2024-02-26T08:13:57;1.90;;;1.80;;
10403;SDS011;5248;47.374;8.486;2024-02-26T08:16:24;2.20;;;1.50;;
10403;SDS011;5248;47.374;8.486;2024-02-26T08:18:51;1.70;;;1.60;;
10403;SDS011;5248;47.374;8.486;2024-02-26T08:21:19;2.30;;;1.60;;
10403;SDS011;5248;47.374;8.486;2024-02-26T08:23:45;2.50;;;1.60;;
10403;SDS011;5248;47.374;8.486;2024-02-26T08:26:12;1.87;;;1.40;;
10403;SDS011;5248;47.374;8.486;2024-02-26T08:28:38;2.53;;;1.70;;
10403;SDS011;5248;47.374;8.486;2024-02-26T08:31:05;3.77;;;1.70;;
10403;SDS011;5248;47.374;8.486;2024-02-26T08:33:32;2.93;;;1.70;;
10403;SDS011;5248;47.374;8.486;2024-02-26T08:35:59;2.93;;;1.70;;
10403;SDS011;5248;47.374;8.486;2024-02-26T08:38:27;2.87;;;1.83;;
10403;SDS011;5248;47.374;8.486;2024-02-26T08:40:54;1.70;;;1.60;;
10403;SDS011;5248;47.374;8.486;2024-02-26T08:43:20;2.40;;;2.13;;
10403;SDS011;5248;47.374;8.486;2024-02-26T08:45:47;1.97;;;1.87;;
10403;SDS011;5248;47.374;8.486;2024-02-26T08:48:13;3.50;;;1.80;;
10403;SDS011;5248;47.374;8.486;2024-02-26T08:50:40;2.23;;;2.13;;
10403;SDS011;5248;47.374;8.486;2024-02-26T08:53:07;2.37;;;1.60;;
10403;SDS011;5248;47.374;8.486;2024-02-26T08:55:35;1.90;;;1.80;;
10403;SDS011;5248;47.374;8.486;2024-02-26T08:58:01;2.33;;;1.93;;
10403;SDS011;5248;47.374;8.486;2024-02-26T09:00:28;2.13;;;2.00;;
10403;SDS011;5248;47.374;8.486;2024-02-26T09:02:56;1.90;;;1.80;;
10403;SDS011;5248;47.374;8.486;2024-02-26T09:05:22;2.20;;;1.70;;
10403;SDS011;5248;47.374;8.486;2024-02-26T09:07:49;7.30;;;2.00;;
10403;SDS011;5248;47.374;8.486;2024-02-26T09:10:17;2.13;;;2.03;;
10403;SDS011;5248;47.374;8.486;2024-02-26T09:12:44;2.43;;;2.23;;
10403;SDS011;5248;47.374;8.486;2024-02-26T09:15:11;2.77;;;2.00;;
10403;SDS011;5248;47.374;8.486;2024-02-26T09:17:38;2.53;;;2.13;;
10403;SDS011;5248;47.374;8.486;2024-02-26T09:20:07;4.57;;;2.40;;
10403;SDS011;5248;47.374;8.486;2024-02-26T09:22:35;3.33;;;2.30;;
10403;SDS011;5248;47.374;8.486;2024-02-26T09:25:03;4.80;;;2.53;;
10403;SDS011;5248;47.374;8.486;2024-02-26T09:27:31;3.97;;;2.53;;
10403;SDS011;5248;47.374;8.486;2024-02-26T09:29:59;3.80;;;2.17;;
10403;SDS011;5248;47.374;8.486;2024-02-26T09:32:26;5.47;;;2.33;;
10403;SDS011;5248;47.374;8.486;2024-02-26T09:34:52;2.97;;;2.30;;
10403;SDS011;5248;47.374;8.486;2024-02-26T09:37:19;2.53;;;2.10;;
10403;SDS011;5248;47.374;8.486;2024-02-26T09:39:45;3.73;;;2.30;;
10403;SDS011;5248;47.374;8.486;2024-02-26T09:42:12;2.10;;;2.00;;
10403;SDS011;5248;47.374;8.486;2024-02-26T09:44:39;2.23;;;2.13;;
10403;SDS011;5248;47.374;8.486;2024-02-26T09:47:09;3.83;;;2.20;;
10403;SDS011;5248;47.374;8.486;2024-02-26T09:49:36;2.57;;;2.20;;
10403;SDS011;5248;47.374;8.486;2024-02-26T09:52:04;2.10;;;2.00;;
10403;SDS011;5248;47.374;8.486;2024-02-26T09:54:31;2.80;;;2.30;;
10403;SDS011;5248;47.374;8.486;2024-02-26T09:56:58;2.90;;;2.50;;
10403;SDS011;5248;47.374;8.486;2024-02-26T09:59:26;2.33;;;2.10;;
10403;SDS011;5248;47.374;8.486;2024-02-26T10:01:53;2.60;;;2.40;;
10403;SDS011;5248;47.374;8.486;2024-02-26T10:04:21;3.90;;;2.57;;
10403;SDS011;5248;47.374;8.486;2024-02-26T10:06:48;3.40;;;2.23;;
10403;SDS011;5248;47.374;8.486;2024-02-26T10:09:16;2.20;;;2.10;;
10403;SDS011;5248;47.374;8.486;2024-02-26T10:11:42;2.50;;;2.10;;
10403;SDS011;5248;47.374;8.486;2024-02-26T10:14:09;3.70;;;2.23;;
10403;SDS011;5248;47.374;8.486;2024-02-26T10:16:36;2.20;;;2.00;;
10403;SDS011;5248;47.374;8.486;2024-02-26T10:19:03;3.47;;;2.60;;
10403;SDS011;5248;47.374;8.486;2024-02-26T10:21:31;2.40;;;2.20;;
10403;SDS011;5248;47.374;8.486;2024-02-26T10:23:58;2.53;;;2.43;;
10403;SDS011;5248;47.374;8.486;2024-02-26T10:26:24;3.27;;;2.43;;
10403;SDS011;5248;47.374;8.486;2024-02-26T10:28:51;4.40;;;2.90;;
10403;SDS011;5248;47.374;8.486;2024-02-26T10:31:17;3.40;;;2.63;;
10403;SDS011;5248;47.374;8.486;2024-02-26T10:33:45;8.20;;;2.90;;
10403;SDS011;5248;47.374;8.486;2024-02-26T10:36:11;7.33;;;2.70;;
10403;SDS011;5248;47.374;8.486;2024-02-26T10:38:39;3.53;;;2.50;;
10403;SDS011;5248;47.374;8.486;2024-02-26T10:41:06;4.77;;;2.47;;
10403;SDS011;5248;47.374;8.486;2024-02-26T10:43:33;2.97;;;2.27;;
10403;SDS011;5248;47.374;8.486;2024-02-26T10:46:00;3.43;;;2.50;;
10403;SDS011;5248;47.374;8.486;2024-02-26T10:48:26;2.57;;;2.37;;
10403;SDS011;5248;47.374;8.486;2024-02-26T10:50:53;2.40;;;2.20;;
10403;SDS011;5248;47.374;8.486;2024-02-26T10:53:21;2.40;;;2.30;;
10403;SDS011;5248;47.374;8.486;2024-02-26T10:55:52;2.30;;;2.20;;
10403;SDS011;5248;47.374;8.486;2024-02-26T10:58:20;2.97;;;2.30;;
10403;SDS011;5248;47.374;8.486;2024-02-26T11:00:48;3.23;;;2.73;;
10403;SDS011;5248;47.374;8.486;2024-02-26T11:03:15;2.97;;;2.67;;
10403;SDS011;5248;47.374;8.486;2024-02-26T11:05:44;2.60;;;2.40;;
10403;SDS011;5248;47.374;8.486;2024-02-26T11:08:12;2.77;;;1.80;;
10403;SDS011;5248;47.374;8.486;2024-02-26T11:10:39;2.47;;;2.00;;
10403;SDS011;5248;47.374;8.486;2024-02-26T11:13:09;2.40;;;2.20;;
10403;SDS011;5248;47.374;8.486;2024-02-26T11:15:38;3.43;;;2.07;;
10403;SDS011;5248;47.374;8.486;2024-02-26T11:18:06;2.90;;;2.07;;
10403;SDS011;5248;47.374;8.486;2024-02-26T11:20:34;2.70;;;2.37;;
10403;SDS011;5248;47.374;8.486;2024-02-26T11:23:00;3.57;;;2.17;;
10403;SDS011;5248;47.374;8.486;2024-02-26T11:25:26;3.07;;;2.23;;
10403;SDS011;5248;47.374;8.486;2024-02-26T11:27:54;2.20;;;2.00;;
10403;SDS011;5248;47.374;8.486;2024-02-26T11:30:28;3.10;;;2.10;;
10403;SDS011;5248;47.374;8.486;2024-02-26T11:32:58;1.90;;;1.80;;
10403;SDS011;5248;47.374;8.486;2024-02-26T11:35:26;3.37;;;2.30;;
10403;SDS011;5248;47.374;8.486;2024-02-26T11:37:53;4.17;;;2.47;;
10403;SDS011;5248;47.374;8.486;2024-02-26T11:40:21;3.57;;;2.00;;
10403;SDS011;5248;47.374;8.486;2024-02-26T11:42:48;1.90;;;1.80;;
10403;SDS011;5248;47.374;8.486;2024-02-26T11:48:25;5.13;;;2.10;;
10403;SDS011;5248;47.374;8.486;2024-02-26T11:50:55;1.97;;;1.87;;
10403;SDS011;5248;47.374;8.486;2024-02-26T11:53:22;2.20;;;2.10;;
10403;SDS011;5248;47.374;8.486;2024-02-26T11:58:49;1.93;;;1.80;;
10403;SDS011;5248;47.374;8.486;2024-02-26T12:04:07;2.27;;;2.07;;
10403;SDS011;5248;47.374;8.486;2024-02-26T12:06:53;2.97;;;2.37;;
10403;SDS011;5248;47.374;8.486;2024-02-26T12:09:30;2.93;;;2.40;;
10403;SDS011;5248;47.374;8.486;2024-02-26T12:11:57;2.70;;;2.27;;
10403;SDS011;5248;47.374;8.486;2024-02-26T12:14:25;3.20;;;2.17;;
10403;SDS011;5248;47.374;8.486;2024-02-26T12:16:52;3.57;;;2.97;;
10403;SDS011;5248;47.374;8.486;2024-02-26T12:19:20;2.40;;;2.20;;
10403;SDS011;5248;47.374;8.486;2024-02-26T12:21:50;3.87;;;2.03;;
10403;SDS011;5248;47.374;8.486;2024-02-26T12:24:17;2.13;;;1.93;;
10403;SDS011;5248;47.374;8.486;2024-02-26T12:26:45;1.87;;;1.77;;
10403;SDS011;5248;47.374;8.486;2024-02-26T12:29:12;2.03;;;1.83;;
10403;SDS011;5248;47.374;8.486;2024-02-26T12:31:39;2.57;;;1.93;;
10403;SDS011;5248;47.374;8.486;2024-02-26T12:34:06;5.37;;;2.30;;
10403;SDS011;5248;47.374;8.486;2024-02-26T12:36:35;2.72;;;2.40;;
10403;SDS011;5248;47.374;8.486;2024-02-26T12:39:03;2.40;;;2.20;;
10403;SDS011;5248;47.374;8.486;2024-02-26T12:41:31;2.50;;;2.30;;
10403;SDS011;5248;47.374;8.486;2024-02-26T12:43:59;4.20;;;2.22;;
10403;SDS011;5248;47.374;8.486;2024-02-26T12:46:25;2.47;;;2.28;;
10403;SDS011;5248;47.374;8.486;2024-02-26T12:48:54;2.87;;;2.27;;
10403;SDS011;5248;47.374;8.486;2024-02-26T12:51:22;2.17;;;2.03;;
10403;SDS011;5248;47.374;8.486;2024-02-26T12:53:54;4.28;;;1.90;;
10403;SDS011;5248;47.374;8.486;2024-02-26T12:56:22;1.95;;;1.75;;
10403;SDS011;5248;47.374;8.486;2024-02-26T12:58:49;2.20;;;2.00;;
10403;SDS011;5248;47.374;8.486;2024-02-26T13:01:17;1.83;;;1.73;;
10403;SDS011;5248;47.374;8.486;2024-02-26T13:03:45;2.50;;;1.98;;
10403;SDS011;5248;47.374;8.486;2024-02-26T13:06:12;3.45;;;1.80;;
10403;SDS011;5248;47.374;8.486;2024-02-26T13:08:39;1.80;;;1.70;;
10403;SDS011;5248;47.374;8.486;2024-02-26T13:11:07;2.40;;;1.83;;
10403;SDS011;5248;47.374;8.486;2024-02-26T13:13:34;4.57;;;2.42;;
10403;SDS011;5248;47.374;8.486;2024-02-26T13:16:02;1.95;;;1.58;;
10403;SDS011;5248;47.374;8.486;2024-02-26T13:18:29;1.83;;;1.73;;
10403;SDS011;5248;47.374;8.486;2024-02-26T13:21:06;1.80;;;1.70;;
10403;SDS011;5248;47.374;8.486;2024-02-26T13:23:33;2.03;;;1.93;;
10403;SDS011;5248;47.374;8.486;2024-02-26T13:26:00;1.88;;;1.73;;
10403;SDS011;5248;47.374;8.486;2024-02-26T13:28:28;2.47;;;2.28;;
10403;SDS011;5248;47.374;8.486;2024-02-26T13:30:55;2.63;;;2.43;;
10403;SDS011;5248;47.374;8.486;2024-02-26T13:33:22;2.47;;;2.17;;
10403;SDS011;5248;47.374;8.486;2024-02-26T13:35:49;2.27;;;2.07;;
10403;SDS011;5248;47.374;8.486;2024-02-26T13:38:19;2.70;;;2.00;;
10403;SDS011;5248;47.374;8.486;2024-02-26T13:40:45;2.27;;;2.00;;
10403;SDS011;5248;47.374;8.486;2024-02-26T13:43:13;2.30;;;2.10;;
10403;SDS011;5248;47.374;8.486;2024-02-26T13:45:41;2.43;;;2.10;;
10403;SDS011;5248;47.374;8.486;2024-02-26T13:48:08;2.40;;;1.90;;
10403;SDS011;5248;47.374;8.486;2024-02-26T13:50:36;2.47;;;1.83;;
10403;SDS011;5248;47.374;8.486;2024-02-26T13:53:03;2.30;;;2.10;;
10403;SDS011;5248;47.374;8.486;2024-02-26T13:55:30;2.03;;;1.93;;
10403;SDS011;5248;47.374;8.486;2024-02-26T13:57:57;2.00;;;1.83;;
10403;SDS011;5248;47.374;8.486;2024-02-26T14:00:24;2.60;;;1.97;;
10403;SDS011;5248;47.374;8.486;2024-02-26T14:02:52;1.90;;;1.80;;
10403;SDS011;5248;47.374;8.486;2024-02-26T14:05:20;3.63;;;2.20;;
10403;SDS011;5248;47.374;8.486;2024-02-26T14:07:47;2.50;;;2.33;;
10403;SDS011;5248;47.374;8.486;2024-02-26T14:10:14;4.53;;;1.93;;
10403;SDS011;5248;47.374;8.486;2024-02-26T14:12:41;2.93;;;2.43;;
10403;SDS011;5248;47.374;8.486;2024-02-26T14:15:08;3.63;;;2.20;;
10403;SDS011;5248;47.374;8.486;2024-02-26T14:17:35;3.53;;;2.47;;
10403;SDS011;5248;47.374;8.486;2024-02-26T14:20:05;3.90;;;2.33;;
10403;SDS011;5248;47.374;8.486;2024-02-26T14:22:34;2.20;;;1.90;;
10403;SDS011;5248;47.374;8.486;2024-02-26T14:25:01;1.93;;;1.83;;
10403;SDS011;5248;47.374;8.486;2024-02-26T14:27:27;2.17;;;2.00;;
10403;SDS011;5248;47.374;8.486;2024-02-26T14:29:54;2.00;;;1.80;;
10403;SDS011;5248;47.374;8.486;2024-02-26T14:32:21;5.20;;;1.90;;
10403;SDS011;5248;47.374;8.486;2024-02-26T14:34:47;3.30;;;1.90;;
10403;SDS011;5248;47.374;8.486;2024-02-26T14:37:18;2.67;;;1.80;;
10403;SDS011;5248;47.374;8.486;2024-02-26T14:39:44;2.13;;;2.03;;
10403;SDS011;5248;47.374;8.486;2024-02-26T14:42:12;2.97;;;2.30;;
10403;SDS011;5248;47.374;8.486;2024-02-26T14:44:42;2.63;;;2.40;;
10403;SDS011;5248;47.374;8.486;2024-02-26T14:47:09;2.30;;;2.10;;
10403;SDS011;5248;47.374;8.486;2024-02-26T14:49:35;2.83;;;2.00;;
10403;SDS011;5248;47.374;8.486;2024-02-26T14:52:02;3.60;;;2.00;;
10403;SDS011;5248;47.374;8.486;2024-02-26T14:54:31;2.47;;;2.20;;
10403;SDS011;5248;47.374;8.486;2024-02-26T14:57:02;3.07;;;1.93;;
10403;SDS011;5248;47.374;8.486;2024-02-26T14:59:29;1.87;;;1.77;;
10403;SDS011;5248;47.374;8.486;2024-02-26T15:01:58;2.00;;;1.90;;
10403;SDS011;5248;47.374;8.486;2024-02-26T15:04:25;1.97;;;1.87;;
10403;SDS011;5248;47.374;8.486;2024-02-26T15:06:52;5.83;;;1.63;;
10403;SDS011;5248;47.374;8.486;2024-02-26T15:09:18;1.80;;;1.67;;